Time;durP1;ratioP1;P1;durP2;ratioP2;P2;SDS_P1;SDS_P2;PMS_P1;PMS_P2;Temp;Humidity;BMP_temperature;BMP_pressure;BME280_temperature;BME280_humidity;BME280_pressure;Samples;Min_cycle;Max_cycle;Signal;HPM_P1;HPM_P2
2023/04/18 00:01:21;;;;;;;15.75;10.90;;;6.30;99.90;;;;;;5023221;28;21052;-82
2023/04/18 00:03:48;;;;;;;18.40;12.67;;;6.40;99.90;;;;;;5025701;28;20498;-80
2023/04/18 00:06:14;;;;;;;15.23;12.10;;;6.20;99.90;;;;;;5016657;28;20519;-81
2023/04/18 00:08:40;;;;;;;14.13;10.73;;;6.30;99.90;;;;;;5021890;28;21002;-79
2023/04/18 00:11:05;;;;;;;13.97;11.40;;;6.20;99.90;;;;;;5019973;28;20524;-80
2023/04/18 00:13:31;;;;;;;16.48;10.95;;;6.20;99.90;;;;;;5019931;28;20428;-80
2023/04/18 00:15:57;;;;;;;14.53;11.60;;;6.10;99.90;;;;;;5023574;28;20414;-81
2023/04/18 00:18:25;;;;;;;15.50;12.63;;;6.20;99.90;;;;;;5026995;28;20487;-79
2023/04/18 00:20:51;;;;;;;13.68;11.02;;;6.20;99.90;;;;;;5023230;28;20442;-82
2023/04/18 00:23:17;;;;;;;15.63;10.77;;;6.20;99.90;;;;;;5024813;28;20426;-84
2023/04/18 00:25:43;;;;;;;15.50;10.53;;;6.20;99.90;;;;;;5014482;28;20409;-82
2023/04/18 00:28:08;;;;;;;13.00;11.40;;;6.20;99.90;;;;;;5042566;28;20781;-81
2023/04/18 00:30:34;;;;;;;15.37;11.03;;;6.10;99.90;;;;;;5022265;28;20416;-80
2023/04/18 00:33:00;;;;;;;15.60;11.20;;;6.30;99.90;;;;;;5019770;28;20475;-82
2023/04/18 00:35:25;;;;;;;12.83;10.73;;;6.20;99.90;;;;;;5021880;28;20437;-79
2023/04/18 00:37:51;;;;;;;16.77;11.23;;;6.20;99.90;;;;;;5021187;28;21776;-82
2023/04/18 00:40:17;;;;;;;15.03;12.17;;;6.20;99.90;;;;;;5021893;28;20529;-81
2023/04/18 00:42:43;;;;;;;15.30;11.97;;;6.20;99.90;;;;;;5024919;28;20431;-79
2023/04/18 00:45:09;;;;;;;15.20;11.60;;;6.20;99.90;;;;;;5024270;28;20459;-80
2023/04/18 00:47:34;;;;;;;15.05;10.98;;;6.40;99.90;;;;;;5024462;28;20517;-81
2023/04/18 00:50:00;;;;;;;14.98;11.20;;;6.30;99.90;;;;;;5020327;28;21320;-81
2023/04/18 00:52:26;;;;;;;14.00;11.32;;;6.30;99.90;;;;;;5009778;28;20811;-82
2023/04/18 00:54:53;;;;;;;14.75;10.93;;;6.30;99.90;;;;;;5022211;28;20419;-82
2023/04/18 00:57:21;;;;;;;12.52;10.63;;;6.30;99.90;;;;;;5022166;28;20423;-82
2023/04/18 00:59:46;;;;;;;13.27;11.20;;;6.30;99.90;;;;;;5024050;28;20430;-79
2023/04/18 01:02:12;;;;;;;12.93;10.67;;;6.30;99.90;;;;;;5024382;28;20430;-79
2023/04/18 01:04:38;;;;;;;12.63;10.90;;;6.20;99.90;;;;;;5022541;28;20481;-80
2023/04/18 01:07:04;;;;;;;14.70;11.17;;;6.20;99.90;;;;;;5017676;28;20481;-79
2023/04/18 01:09:30;;;;;;;14.05;12.02;;;6.10;99.90;;;;;;5019204;28;20743;-80
2023/04/18 01:11:55;;;;;;;14.93;12.25;;;6.10;99.90;;;;;;5021312;28;20851;-78
2023/04/18 01:14:21;;;;;;;13.90;12.38;;;6.00;99.90;;;;;;5019831;28;20422;-82
2023/04/18 01:16:47;;;;;;;14.98;11.43;;;5.90;99.90;;;;;;5023365;28;20860;-81
2023/04/18 01:19:13;;;;;;;16.25;12.02;;;6.10;99.90;;;;;;5026496;28;20427;-78
2023/04/18 01:21:42;;;;;;;17.77;13.27;;;6.00;99.90;;;;;;5021742;28;20431;-82
2023/04/18 01:24:16;;;;;;;17.50;12.57;;;6.00;99.90;;;;;;5027888;28;21178;-80
2023/04/18 01:26:44;;;;;;;15.07;11.95;;;6.20;99.90;;;;;;5020730;28;20415;-80
2023/04/18 01:29:10;;;;;;;12.52;10.68;;;6.20;99.90;;;;;;5015915;28;20420;-79
2023/04/18 01:31:37;;;;;;;14.48;11.50;;;6.30;99.90;;;;;;5020029;28;20445;-79
2023/04/18 01:34:04;;;;;;;14.80;11.60;;;6.20;99.90;;;;;;5023309;28;20767;-80
2023/04/18 01:36:30;;;;;;;13.25;11.40;;;6.10;99.90;;;;;;5020711;28;20437;-79
2023/04/18 01:38:56;;;;;;;16.17;11.07;;;6.20;99.90;;;;;;5021015;28;20427;-82
2023/04/18 01:41:22;;;;;;;12.88;10.88;;;6.20;99.90;;;;;;5023103;28;20432;-80
2023/04/18 01:43:48;;;;;;;13.30;10.07;;;6.20;99.90;;;;;;5013435;28;20941;-79
2023/04/18 01:46:13;;;;;;;14.17;11.93;;;6.20;99.90;;;;;;5023044;28;20419;-81
2023/04/18 01:48:39;;;;;;;16.23;10.67;;;6.30;99.90;;;;;;5021779;28;20513;-80
2023/04/18 01:51:05;;;;;;;12.50;10.33;;;6.20;99.90;;;;;;5019118;28;20915;-81
2023/04/18 01:53:31;;;;;;;14.53;11.63;;;6.10;99.90;;;;;;5025997;28;20426;-81
2023/04/18 01:55:59;;;;;;;16.75;11.82;;;6.20;99.90;;;;;;5008900;28;20445;-80
2023/04/18 01:58:25;;;;;;;14.30;10.50;;;6.10;99.90;;;;;;5023191;28;20429;-82
2023/04/18 02:00:56;;;;;;;14.65;10.93;;;6.10;99.90;;;;;;5021107;28;20430;-79
2023/04/18 02:03:22;;;;;;;12.85;10.50;;;6.10;99.90;;;;;;5012341;28;20424;-80
2023/04/18 02:05:49;;;;;;;12.35;9.98;;;6.20;99.90;;;;;;5022126;28;20422;-80
2023/04/18 02:08:14;;;;;;;12.98;11.23;;;6.10;99.90;;;;;;5018398;28;20419;-80
2023/04/18 02:10:40;;;;;;;14.70;11.10;;;6.20;99.90;;;;;;5017142;28;20434;-80
2023/04/18 02:13:06;;;;;;;13.50;10.67;;;6.10;99.90;;;;;;5024109;28;20442;-82
2023/04/18 02:15:32;;;;;;;12.77;9.87;;;6.10;99.90;;;;;;5022971;28;20458;-80
2023/04/18 02:18:01;;;;;;;15.02;10.75;;;5.90;99.90;;;;;;5009078;28;20434;-81
2023/04/18 02:20:30;;;;;;;12.45;10.95;;;6.00;99.90;;;;;;5010351;28;20777;-81
2023/04/18 02:22:57;;;;;;;13.23;10.00;;;6.00;99.90;;;;;;5024762;28;20427;-80
2023/04/18 02:25:25;;;;;;;11.63;9.70;;;6.00;99.90;;;;;;5022690;28;20492;-84
2023/04/18 02:27:52;;;;;;;13.60;9.55;;;6.00;99.90;;;;;;5021094;28;20460;-78
2023/04/18 02:30:17;;;;;;;11.85;9.85;;;6.00;99.90;;;;;;5022933;28;20426;-80
2023/04/18 02:32:43;;;;;;;10.97;9.37;;;5.90;99.90;;;;;;5020331;28;20435;-79
2023/04/18 02:35:10;;;;;;;13.27;9.67;;;6.00;99.90;;;;;;5016207;28;20418;-79
2023/04/18 02:37:36;;;;;;;11.93;9.50;;;5.90;99.90;;;;;;5015679;28;20443;-83
2023/04/18 02:40:03;;;;;;;11.50;9.60;;;5.90;99.90;;;;;;5015057;28;20492;-80
2023/04/18 02:42:30;;;;;;;12.13;9.18;;;5.90;99.90;;;;;;5022857;28;20462;-80
2023/04/18 02:44:56;;;;;;;10.93;8.65;;;5.90;99.90;;;;;;5011215;28;20431;-80
2023/04/18 02:47:21;;;;;;;10.10;8.77;;;5.90;99.90;;;;;;5028677;28;20813;-82
2023/04/18 02:49:47;;;;;;;11.10;8.60;;;5.90;99.90;;;;;;5023172;28;21128;-80
2023/04/18 02:52:13;;;;;;;9.20;8.20;;;5.90;99.90;;;;;;5010017;28;20466;-79
2023/04/18 02:54:39;;;;;;;10.52;8.38;;;5.90;99.90;;;;;;5017461;28;20775;-83
2023/04/18 02:57:05;;;;;;;10.07;8.00;;;5.90;99.90;;;;;;5024519;28;20438;-79
2023/04/18 02:59:30;;;;;;;11.45;8.18;;;5.90;99.90;;;;;;5015040;28;20864;-81
2023/04/18 03:01:56;;;;;;;12.63;8.32;;;5.90;99.90;;;;;;5024961;28;20952;-79
2023/04/18 03:04:22;;;;;;;11.73;8.13;;;5.90;99.90;;;;;;5015513;28;20418;-82
2023/04/18 03:06:48;;;;;;;10.70;8.02;;;6.00;99.90;;;;;;5019251;28;20786;-83
2023/04/18 03:09:15;;;;;;;10.13;7.80;;;5.90;99.90;;;;;;5018155;28;20440;-81
2023/04/18 03:11:40;;;;;;;9.77;7.53;;;5.90;99.90;;;;;;5011083;28;20520;-82
2023/04/18 03:14:06;;;;;;;10.17;8.10;;;6.00;99.90;;;;;;5026575;28;20504;-80
2023/04/18 03:16:32;;;;;;;9.87;7.13;;;6.00;99.90;;;;;;5028246;28;20422;-79
2023/04/18 03:18:57;;;;;;;11.03;7.93;;;6.00;99.90;;;;;;5021763;28;20447;-79
2023/04/18 03:21:23;;;;;;;9.03;7.40;;;6.00;99.90;;;;;;5017867;28;20424;-80
2023/04/18 03:23:49;;;;;;;8.87;7.10;;;6.10;99.90;;;;;;5001593;28;20489;-80
2023/04/18 03:26:14;;;;;;;10.27;7.40;;;6.10;99.90;;;;;;5017920;28;20438;-80
2023/04/18 03:28:40;;;;;;;10.13;7.17;;;6.10;99.90;;;;;;5023112;28;20450;-79
2023/04/18 03:31:06;;;;;;;8.93;7.53;;;6.20;99.90;;;;;;5021813;28;20429;-81
2023/04/18 03:33:31;;;;;;;9.57;7.20;;;6.20;99.90;;;;;;5017922;28;20434;-81
2023/04/18 03:35:58;;;;;;;10.53;7.10;;;6.30;99.90;;;;;;5008659;28;20430;-83
2023/04/18 03:38:23;;;;;;;8.52;7.30;;;6.30;99.90;;;;;;5030318;28;20430;-84
2023/04/18 03:40:49;;;;;;;9.43;7.10;;;6.30;99.90;;;;;;5021655;28;20439;-79
2023/04/18 03:43:15;;;;;;;8.52;7.00;;;6.30;99.90;;;;;;5029057;28;20415;-80
2023/04/18 03:45:40;;;;;;;9.20;7.22;;;6.30;99.90;;;;;;5028073;28;20588;-81
2023/04/18 03:48:06;;;;;;;7.90;6.70;;;6.30;99.90;;;;;;5025203;28;20420;-78
2023/04/18 03:50:32;;;;;;;8.95;6.82;;;6.40;99.90;;;;;;5023963;28;20427;-80
2023/04/18 03:52:58;;;;;;;8.20;6.68;;;6.40;99.90;;;;;;5012575;28;20835;-81
2023/04/18 03:55:25;;;;;;;8.73;7.00;;;6.40;99.90;;;;;;5025442;28;20516;-80
2023/04/18 03:57:50;;;;;;;9.37;6.73;;;6.40;99.90;;;;;;5026063;28;20431;-81
2023/04/18 04:00:16;;;;;;;9.77;7.33;;;6.40;99.90;;;;;;5023526;28;20431;-80
2023/04/18 04:02:42;;;;;;;8.80;7.03;;;6.40;99.90;;;;;;5016045;28;20419;-80
2023/04/18 04:05:08;;;;;;;9.43;7.40;;;6.40;99.90;;;;;;5026244;28;20801;-80
2023/04/18 04:07:34;;;;;;;8.38;7.35;;;6.40;99.90;;;;;;5019370;28;20526;-80
2023/04/18 04:10:00;;;;;;;8.03;6.63;;;6.40;99.90;;;;;;5019128;28;21111;-80
2023/04/18 04:12:26;;;;;;;10.67;7.37;;;6.50;99.90;;;;;;5014589;28;20442;-79
2023/04/18 04:14:52;;;;;;;9.60;7.40;;;6.40;99.90;;;;;;5016174;28;20432;-80
2023/04/18 04:17:17;;;;;;;9.48;6.88;;;6.40;99.90;;;;;;5027609;28;20498;-79
2023/04/18 04:19:43;;;;;;;10.98;7.20;;;6.40;99.90;;;;;;5018661;28;20487;-83
2023/04/18 04:22:09;;;;;;;10.45;7.25;;;6.50;99.90;;;;;;5017312;28;20889;-78
2023/04/18 04:24:37;;;;;;;9.90;6.78;;;6.50;99.90;;;;;;5019414;28;20848;-81
2023/04/18 04:27:04;;;;;;;10.23;6.90;;;6.60;99.90;;;;;;5013184;28;20420;-81
2023/04/18 04:29:29;;;;;;;8.20;6.43;;;6.60;99.90;;;;;;5015734;28;20578;-82
2023/04/18 04:31:55;;;;;;;9.40;7.43;;;6.60;99.90;;;;;;5016859;28;21041;-80
2023/04/18 04:34:21;;;;;;;9.52;7.10;;;6.70;99.90;;;;;;5015554;28;20508;-79
2023/04/18 04:36:47;;;;;;;9.52;6.90;;;6.70;99.90;;;;;;5014350;28;20431;-80
2023/04/18 04:39:14;;;;;;;7.22;6.53;;;6.70;99.90;;;;;;5014205;28;20427;-79
2023/04/18 04:41:39;;;;;;;9.52;6.75;;;6.70;99.90;;;;;;5024048;28;20431;-81
2023/04/18 04:44:05;;;;;;;7.93;6.43;;;6.70;99.90;;;;;;5022037;28;20795;-79
2023/04/18 04:46:32;;;;;;;11.65;7.40;;;6.80;99.90;;;;;;5018734;28;20859;-80
2023/04/18 04:48:59;;;;;;;10.50;7.63;;;6.80;99.90;;;;;;5020423;28;20535;-81
2023/04/18 04:51:26;;;;;;;9.25;7.18;;;6.80;99.90;;;;;;5023525;28;20518;-79
2023/04/18 04:53:52;;;;;;;10.77;6.30;;;6.70;99.90;;;;;;5026325;28;20422;-82
2023/04/18 04:56:18;;;;;;;7.60;6.43;;;6.80;99.90;;;;;;5018298;28;20504;-81
2023/04/18 04:58:44;;;;;;;10.17;6.93;;;6.90;99.90;;;;;;5019790;28;20427;-78
2023/04/18 05:01:10;;;;;;;9.80;7.32;;;6.80;99.90;;;;;;5019294;28;20480;-80
2023/04/18 05:03:35;;;;;;;10.80;8.07;;;6.90;99.90;;;;;;5020035;28;20463;-79
2023/04/18 05:06:02;;;;;;;9.07;6.57;;;6.90;99.90;;;;;;5020718;28;20513;-82
2023/04/18 05:08:27;;;;;;;8.68;6.68;;;6.90;99.90;;;;;;5021079;28;20485;-78
2023/04/18 05:10:54;;;;;;;10.57;6.90;;;6.90;99.90;;;;;;5017793;28;20423;-81
2023/04/18 05:13:20;;;;;;;12.73;7.43;;;6.90;99.90;;;;;;5020874;28;20435;-77
2023/04/18 05:15:45;;;;;;;9.67;6.57;;;6.90;99.90;;;;;;5021310;28;20971;-79
2023/04/18 05:18:13;;;;;;;8.27;7.00;;;7.00;99.90;;;;;;5019731;28;20423;-80
2023/04/18 05:20:38;;;;;;;10.40;6.82;;;7.00;99.90;;;;;;5020825;28;20426;-80
2023/04/18 05:23:04;;;;;;;10.25;8.20;;;7.00;99.90;;;;;;5019511;28;20437;-80
2023/04/18 05:25:31;;;;;;;11.40;7.23;;;7.00;99.90;;;;;;5020132;28;20555;-81
2023/04/18 05:27:58;;;;;;;11.27;7.25;;;7.00;99.90;;;;;;5021254;28;20747;-81
2023/04/18 05:30:24;;;;;;;11.65;7.57;;;7.00;99.90;;;;;;5018989;28;20442;-79
2023/04/18 05:32:50;;;;;;;15.30;7.38;;;7.10;99.90;;;;;;5013727;28;20791;-80
2023/04/18 05:35:16;;;;;;;12.32;7.88;;;7.10;99.90;;;;;;5029000;28;20431;-77
2023/04/18 05:37:41;;;;;;;12.60;7.63;;;7.10;99.90;;;;;;5016177;28;20494;-79
2023/04/18 05:40:08;;;;;;;9.60;7.15;;;7.20;99.90;;;;;;5012528;28;20463;-80
2023/04/18 05:42:33;;;;;;;10.68;8.00;;;7.20;99.90;;;;;;5012179;28;20432;-81
2023/04/18 05:44:59;;;;;;;10.45;7.93;;;7.20;99.90;;;;;;4990940;28;20487;-79
2023/04/18 05:47:27;;;;;;;8.85;7.40;;;7.20;99.90;;;;;;5006035;28;20553;-80
2023/04/18 05:49:53;;;;;;;13.73;8.63;;;7.10;99.90;;;;;;5017145;28;20422;-78
2023/04/18 05:52:19;;;;;;;10.75;8.30;;;7.20;99.90;;;;;;5036572;28;20444;-80
2023/04/18 05:54:45;;;;;;;12.20;7.73;;;7.30;99.90;;;;;;5016172;28;20427;-77
2023/04/18 05:57:10;;;;;;;10.57;8.00;;;7.30;99.90;;;;;;5021646;28;20487;-80
2023/04/18 05:59:36;;;;;;;10.27;7.87;;;7.30;99.90;;;;;;5023089;28;20427;-80
2023/04/18 06:02:02;;;;;;;11.77;7.97;;;7.40;99.90;;;;;;5024943;28;20423;-79
2023/04/18 06:04:27;;;;;;;14.10;8.43;;;7.40;99.90;;;;;;5006525;28;20952;-79
2023/04/18 06:06:53;;;;;;;12.77;8.07;;;7.50;99.90;;;;;;5013564;28;20430;-79
2023/04/18 06:09:19;;;;;;;14.03;8.50;;;7.80;99.90;;;;;;5013829;28;20430;-80
2023/04/18 06:11:45;;;;;;;11.00;8.60;;;8.10;99.90;;;;;;5020691;28;20822;-79
2023/04/18 06:14:10;;;;;;;10.70;8.87;;;8.00;99.90;;;;;;5000177;28;20989;-79
2023/04/18 06:16:36;;;;;;;11.93;8.77;;;8.30;99.90;;;;;;5022715;28;20464;-78
2023/04/18 06:19:03;;;;;;;13.57;8.40;;;8.10;99.90;;;;;;5005024;28;20423;-81
2023/04/18 06:21:29;;;;;;;10.85;8.73;;;8.20;99.90;;;;;;5019810;28;20946;-80
2023/04/18 06:23:55;;;;;;;12.57;8.90;;;7.80;99.90;;;;;;5017901;28;20422;-82
2023/04/18 06:26:21;;;;;;;12.10;8.33;;;7.90;99.90;;;;;;5014603;28;20470;-78
2023/04/18 06:28:46;;;;;;;12.40;8.40;;;7.80;99.90;;;;;;5007385;28;20436;-85
2023/04/18 06:31:12;;;;;;;10.77;9.40;;;7.80;99.90;;;;;;5014778;28;20437;-82
2023/04/18 06:33:38;;;;;;;11.43;8.60;;;7.80;99.90;;;;;;5018676;28;20520;-80
2023/04/18 06:36:04;;;;;;;11.17;8.70;;;7.80;99.90;;;;;;5021322;28;20535;-81
2023/04/18 06:38:32;;;;;;;11.77;8.75;;;8.00;99.90;;;;;;5025160;28;20506;-80
2023/04/18 06:40:58;;;;;;;9.82;8.30;;;7.90;99.90;;;;;;5030958;28;20547;-80
2023/04/18 06:43:23;;;;;;;12.00;8.75;;;7.90;99.90;;;;;;5025913;28;20429;-80
2023/04/18 06:45:49;;;;;;;11.05;7.93;;;8.00;99.90;;;;;;5027286;28;21125;-80
2023/04/18 06:48:15;;;;;;;12.70;8.65;;;7.90;99.90;;;;;;5039174;28;20921;-82
2023/04/18 06:50:40;;;;;;;12.32;8.13;;;8.10;99.90;;;;;;5024514;28;20497;-81
2023/04/18 06:53:06;;;;;;;12.57;8.27;;;8.00;99.90;;;;;;5022515;28;20513;-77
2023/04/18 06:55:32;;;;;;;10.23;7.63;;;8.30;99.90;;;;;;5026880;28;20577;-80
2023/04/18 06:57:59;;;;;;;11.57;8.60;;;8.80;99.90;;;;;;5024657;28;20910;-82
2023/04/18 07:00:25;;;;;;;9.57;8.05;;;9.10;99.90;;;;;;5021421;28;20423;-82
2023/04/18 07:02:50;;;;;;;12.95;7.63;;;9.40;99.90;;;;;;5018211;28;20431;-82
2023/04/18 07:05:16;;;;;;;8.90;7.57;;;10.00;99.90;;;;;;5023252;28;20909;-80
2023/04/18 07:07:42;;;;;;;9.57;7.45;;;10.60;99.90;;;;;;5010788;28;20792;-81
2023/04/18 07:10:08;;;;;;;11.80;8.52;;;10.50;99.90;;;;;;5020579;28;20423;-81
2023/04/18 07:12:34;;;;;;;11.60;6.97;;;10.70;99.90;;;;;;5017322;28;20446;-83
2023/04/18 07:15:00;;;;;;;24.67;7.88;;;10.00;99.90;;;;;;5024388;28;20429;-81
2023/04/18 07:17:26;;;;;;;13.85;7.82;;;9.50;99.90;;;;;;5020755;28;20798;-83
2023/04/18 07:19:51;;;;;;;11.77;7.00;;;9.30;99.90;;;;;;5017472;28;20535;-81
2023/04/18 07:22:17;;;;;;;7.95;6.35;;;9.10;99.90;;;;;;5022558;28;20435;-77
2023/04/18 07:24:42;;;;;;;12.30;7.00;;;9.10;99.90;;;;;;5024787;28;20446;-80
2023/04/18 07:27:08;;;;;;;9.37;6.50;;;9.10;99.90;;;;;;5018186;28;20436;-82
2023/04/18 07:29:35;;;;;;;8.97;6.93;;;9.10;99.90;;;;;;5020615;28;20409;-82
2023/04/18 07:32:01;;;;;;;12.40;7.18;;;9.20;99.90;;;;;;5020570;28;20460;-84
2023/04/18 07:34:28;;;;;;;7.63;5.85;;;9.10;99.90;;;;;;5013631;28;20465;-80
2023/04/18 07:36:57;;;;;;;8.40;6.78;;;9.30;99.90;;;;;;5022994;28;20916;-81
2023/04/18 07:39:22;;;;;;;11.25;7.50;;;9.40;99.90;;;;;;5013910;28;20423;-82
2023/04/18 07:41:48;;;;;;;13.67;7.43;;;9.40;99.90;;;;;;5022746;28;20423;-83
2023/04/18 07:44:13;;;;;;;7.67;6.03;;;9.40;99.90;;;;;;5017090;28;20437;-82
2023/04/18 07:46:39;;;;;;;14.33;6.67;;;9.50;99.90;;;;;;5024231;28;20427;-81
2023/04/18 07:49:05;;;;;;;11.93;7.20;;;9.60;99.90;;;;;;5011705;28;20506;-78
2023/04/18 07:51:31;;;;;;;8.53;6.40;;;9.50;99.90;;;;;;5021997;28;20600;-81
2023/04/18 07:53:58;;;;;;;10.53;7.17;;;9.80;99.90;;;;;;5023500;28;20426;-83
2023/04/18 07:56:24;;;;;;;10.40;6.88;;;9.90;99.90;;;;;;5007245;28;20614;-81
2023/04/18 07:58:50;;;;;;;9.63;7.22;;;9.60;99.90;;;;;;5017628;28;20848;-78
2023/04/18 08:01:17;;;;;;;9.67;7.23;;;9.70;99.90;;;;;;5019729;28;20482;-80
2023/04/18 08:03:43;;;;;;;10.50;6.87;;;9.70;99.90;;;;;;5006546;28;20513;-81
2023/04/18 08:06:09;;;;;;;11.60;7.88;;;9.70;99.90;;;;;;5024775;28;20433;-80
2023/04/18 08:08:35;;;;;;;14.80;7.20;;;9.70;99.90;;;;;;5002679;28;20429;-80
2023/04/18 08:11:00;;;;;;;11.40;6.78;;;9.80;99.90;;;;;;5038019;28;20415;-78
2023/04/18 08:13:26;;;;;;;12.23;7.55;;;9.90;99.90;;;;;;5047282;28;20991;-77
2023/04/18 08:15:52;;;;;;;11.50;7.57;;;10.10;99.90;;;;;;5013112;28;20409;-77
2023/04/18 08:18:18;;;;;;;11.65;7.63;;;10.40;99.90;;;;;;5011722;28;20479;-77
2023/04/18 08:20:44;;;;;;;9.65;7.07;;;10.40;99.90;;;;;;5020909;28;20423;-81
2023/04/18 08:23:10;;;;;;;11.73;7.90;;;10.20;99.90;;;;;;5018268;28;20555;-80
2023/04/18 08:25:36;;;;;;;12.30;7.90;;;9.90;99.90;;;;;;5012279;28;20419;-81
2023/04/18 08:28:01;;;;;;;9.73;6.97;;;10.10;99.90;;;;;;5027155;28;20427;-81
2023/04/18 08:30:27;;;;;;;10.60;7.83;;;10.10;99.90;;;;;;5026647;28;20430;-83
2023/04/18 08:32:53;;;;;;;12.10;7.97;;;10.20;99.90;;;;;;5023814;28;20454;-78
2023/04/18 08:35:18;;;;;;;11.10;7.53;;;10.10;99.90;;;;;;5025977;28;20515;-82
2023/04/18 08:37:44;;;;;;;8.70;7.57;;;10.20;99.90;;;;;;5025610;28;20412;-79
2023/04/18 08:40:10;;;;;;;10.63;7.70;;;10.20;99.90;;;;;;5023390;28;20453;-80
2023/04/18 08:42:38;;;;;;;10.77;8.48;;;10.00;99.90;;;;;;5008863;28;20443;-85
2023/04/18 08:45:05;;;;;;;10.10;7.28;;;10.10;99.90;;;;;;5027641;28;20419;-83
2023/04/18 08:47:33;;;;;;;10.10;8.40;;;10.30;99.90;;;;;;5013753;28;20499;-82
2023/04/18 08:50:00;;;;;;;9.55;7.22;;;10.30;99.90;;;;;;4999816;28;20432;-85
2023/04/18 08:52:29;;;;;;;9.48;6.60;;;10.60;99.90;;;;;;5027952;28;20438;-83
2023/04/18 08:54:56;;;;;;;9.32;6.55;;;10.40;99.90;;;;;;5011260;28;20467;-86
2023/04/18 08:57:25;;;;;;;11.55;7.10;;;10.50;99.90;;;;;;5007431;28;20415;-80
2023/04/18 08:59:52;;;;;;;8.90;7.10;;;10.60;99.90;;;;;;5025225;28;20522;-80
2023/04/18 09:02:20;;;;;;;8.57;6.70;;;10.50;99.90;;;;;;5021652;28;20494;-81
2023/04/18 09:04:51;;;;;;;10.30;6.43;;;10.70;99.90;;;;;;5020601;28;20459;-80
2023/04/18 09:07:19;;;;;;;9.87;6.67;;;11.00;99.90;;;;;;5025491;28;20412;-79
2023/04/18 09:09:49;;;;;;;10.55;6.78;;;11.00;99.90;;;;;;5012861;28;20444;-81
2023/04/18 09:12:24;;;;;;;10.13;6.87;;;11.10;99.90;;;;;;5019399;28;20442;-80
2023/04/18 09:15:08;;;;;;;12.68;7.47;;;10.90;99.90;;;;;;5027888;28;20425;-83
2023/04/18 09:17:42;;;;;;;8.83;6.57;;;11.10;99.90;;;;;;5024972;28;20435;-82
2023/04/18 09:20:09;;;;;;;10.38;7.47;;;10.90;99.90;;;;;;5024874;28;20785;-82
2023/04/18 09:22:50;;;;;;;10.73;7.15;;;11.00;99.90;;;;;;5025202;28;20435;-79
2023/04/18 09:25:34;;;;;;;11.77;7.30;;;11.30;99.90;;;;;;5011259;28;20471;-81
2023/04/18 09:28:23;;;;;;;8.87;7.20;;;11.30;99.90;;;;;;5010964;28;20465;-81
2023/04/18 09:30:53;;;;;;;11.48;7.22;;;11.10;99.90;;;;;;5024042;28;20648;-81
2023/04/18 09:33:31;;;;;;;8.73;6.82;;;11.30;99.90;;;;;;5027829;28;20758;-80
2023/04/18 09:36:34;;;;;;;10.57;6.70;;;11.00;99.90;;;;;;5030224;28;20417;-78
2023/04/18 09:38:59;;;;;;;10.02;7.28;;;11.30;99.90;;;;;;5039106;28;20450;-82
2023/04/18 09:41:25;;;;;;;9.20;6.93;;;11.40;99.90;;;;;;5031326;28;20586;-77
2023/04/18 09:44:14;;;;;;;9.90;6.85;;;11.60;99.90;;;;;;5025072;28;20812;-81
2023/04/18 09:46:39;;;;;;;10.40;7.40;;;11.60;99.90;;;;;;5026091;28;20411;-80
2023/04/18 09:49:06;;;;;;;8.80;6.80;;;11.80;99.90;;;;;;5023893;28;20786;-83
2023/04/18 09:51:32;;;;;;;8.93;7.22;;;11.40;99.90;;;;;;5017367;28;20918;-79
2023/04/18 09:53:59;;;;;;;10.98;7.13;;;11.80;99.90;;;;;;5026424;28;20418;-81
2023/04/18 09:56:28;;;;;;;10.18;6.80;;;11.50;99.90;;;;;;5007812;28;20624;-82
2023/04/18 09:59:18;;;;;;;9.48;7.13;;;11.90;99.90;;;;;;5019118;28;20497;-79
2023/04/18 10:01:47;;;;;;;11.35;7.88;;;11.90;99.90;;;;;;5006092;28;21427;-80
2023/04/18 10:04:15;;;;;;;10.25;7.20;;;11.90;99.90;;;;;;5021708;28;20416;-82
2023/04/18 10:06:41;;;;;;;10.05;6.97;;;11.80;99.90;;;;;;5024318;28;20918;-78
2023/04/18 10:09:08;;;;;;;7.43;6.55;;;12.00;99.90;;;;;;5023894;28;20506;-78
2023/04/18 10:11:34;;;;;;;10.15;7.07;;;12.00;99.90;;;;;;5024387;28;20430;-79
2023/04/18 10:14:08;;;;;;;9.23;6.93;;;11.90;99.90;;;;;;5022746;28;20431;-78
2023/04/18 10:16:34;;;;;;;10.10;7.65;;;11.60;99.90;;;;;;5024963;28;20410;-78
2023/04/18 10:19:26;;;;;;;10.70;7.35;;;12.00;99.90;;;;;;5019881;28;20426;-78
2023/04/18 10:21:57;;;;;;;9.50;7.73;;;12.10;99.90;;;;;;5005364;28;20428;-78
2023/04/18 10:24:48;;;;;;;9.90;7.50;;;12.30;99.90;;;;;;5008135;28;20449;-78
2023/04/18 10:27:18;;;;;;;10.45;7.32;;;12.50;99.90;;;;;;5018606;28;20936;-79
2023/04/18 10:29:52;;;;;;;14.17;8.53;;;12.10;99.90;;;;;;5024244;28;21786;-77
2023/04/18 10:32:21;;;;;;;12.20;8.38;;;12.00;99.90;;;;;;5024700;28;20427;-78
2023/04/18 10:34:48;;;;;;;11.98;7.63;;;12.10;99.90;;;;;;5020560;28;20438;-77
2023/04/18 10:37:14;;;;;;;9.05;7.60;;;12.10;99.90;;;;;;5024453;28;20502;-78
2023/04/18 10:39:56;;;;;;;10.95;8.35;;;12.30;99.90;;;;;;5024804;28;20423;-72
2023/04/18 10:42:46;;;;;;;10.40;7.68;;;12.40;99.90;;;;;;5025883;28;20501;-78
2023/04/18 10:45:19;;;;;;;8.95;7.53;;;12.50;99.90;;;;;;5014602;28;20943;-79
2023/04/18 10:47:45;;;;;;;13.05;6.65;;;12.60;99.90;;;;;;5020090;28;20457;-77
2023/04/18 10:50:11;;;;;;;10.45;7.15;;;13.00;99.90;;;;;;5023212;28;20426;-77
2023/04/18 10:52:37;;;;;;;8.93;7.15;;;12.70;99.90;;;;;;5018104;28;20551;-78
2023/04/18 10:55:23;;;;;;;9.70;6.97;;;12.40;99.90;;;;;;5009918;28;20414;-78
2023/04/18 10:57:50;;;;;;;10.75;7.57;;;12.10;99.90;;;;;;5024909;28;20463;-77
2023/04/18 11:00:19;;;;;;;9.80;6.88;;;12.40;99.90;;;;;;5018704;28;21015;-77
2023/04/18 11:02:54;;;;;;;10.70;8.93;;;12.40;99.90;;;;;;5023945;28;20461;-74
2023/04/18 11:05:29;;;;;;;8.57;6.57;;;12.40;99.90;;;;;;5021443;28;20439;-75
2023/04/18 11:07:55;;;;;;;10.85;6.82;;;12.40;99.90;;;;;;5019213;28;20774;-74
2023/04/18 11:10:24;;;;;;;11.17;7.63;;;12.20;99.90;;;;;;5005568;28;20432;-75
2023/04/18 11:12:50;;;;;;;7.82;6.97;;;12.30;99.90;;;;;;5005456;28;20433;-74
2023/04/18 11:15:22;;;;;;;10.55;6.65;;;12.30;99.90;;;;;;5035642;28;20426;-75
2023/04/18 11:17:59;;;;;;;8.73;6.70;;;12.70;99.90;;;;;;5024954;28;20514;-76
2023/04/18 11:20:25;;;;;;;9.50;6.63;;;12.60;99.90;;;;;;5020577;28;20438;-74
2023/04/18 11:22:52;;;;;;;8.40;6.00;;;12.40;99.90;;;;;;5014113;28;20431;-74
2023/04/18 11:25:22;;;;;;;6.95;6.10;;;12.60;99.90;;;;;;5019264;28;20473;-74
2023/04/18 11:27:53;;;;;;;7.85;5.75;;;12.30;99.90;;;;;;5006029;28;20975;-74
2023/04/18 11:30:20;;;;;;;7.30;6.03;;;12.50;99.90;;;;;;5005443;28;20427;-72
2023/04/18 11:32:45;;;;;;;7.90;5.65;;;12.60;99.90;;;;;;5023188;28;20501;-73
2023/04/18 12:17:29;;;;;;;8.48;6.78;;;12.80;99.90;;;;;;5061444;28;20892;-75
2023/04/18 12:19:55;;;;;;;8.80;7.07;;;13.00;99.90;;;;;;5056998;28;20713;-73
2023/04/18 12:22:40;;;;;;;8.60;6.30;;;13.10;99.90;;;;;;5047398;28;20472;-75
2023/04/18 12:25:18;;;;;;;7.80;5.85;;;12.90;99.90;;;;;;5043886;28;20459;-73
2023/04/18 12:27:53;;;;;;;8.40;6.35;;;13.40;99.90;;;;;;5042767;28;20425;-72
2023/04/18 12:30:24;;;;;;;6.80;5.72;;;13.20;99.90;;;;;;5042597;28;20437;-72
2023/04/18 12:32:55;;;;;;;7.35;6.20;;;13.30;99.90;;;;;;5071764;28;20823;-72
2023/04/18 12:35:21;;;;;;;7.10;5.85;;;13.30;99.90;;;;;;5039827;28;20778;-73
2023/04/18 12:37:48;;;;;;;7.27;6.47;;;13.30;99.90;;;;;;5043463;28;20429;-77
2023/04/18 12:40:14;;;;;;;9.15;5.88;;;13.40;99.90;;;;;;5045509;28;20421;-73
2023/04/18 12:42:41;;;;;;;6.57;5.87;;;13.50;99.90;;;;;;5050530;28;20413;-74
2023/04/18 12:45:10;;;;;;;6.22;5.05;;;13.40;99.90;;;;;;5026099;28;20760;-74
2023/04/18 12:47:40;;;;;;;6.85;5.20;;;13.50;99.90;;;;;;5042590;28;20511;-75
2023/04/18 12:50:08;;;;;;;6.80;5.60;;;13.60;99.90;;;;;;5060907;28;20512;-74
2023/04/18 12:52:36;;;;;;;5.72;4.88;;;13.60;99.90;;;;;;5047178;28;20490;-74
2023/04/18 12:55:02;;;;;;;6.38;4.90;;;13.60;99.90;;;;;;5048158;28;20472;-72
2023/04/18 12:57:28;;;;;;;5.57;4.53;;;13.40;99.90;;;;;;5043211;28;20414;-73
2023/04/18 12:59:53;;;;;;;5.47;4.13;;;13.40;99.90;;;;;;5061021;28;20404;-73
2023/04/18 13:02:19;;;;;;;4.87;3.33;;;13.60;99.90;;;;;;5042610;28;21047;-73
2023/04/18 13:04:45;;;;;;;5.18;3.42;;;13.80;99.90;;;;;;5060905;28;20820;-75
2023/04/18 13:07:12;;;;;;;5.43;3.67;;;13.70;99.90;;;;;;5059282;28;20417;-73
2023/04/18 13:09:37;;;;;;;3.85;3.45;;;13.70;99.90;;;;;;5048727;28;20830;-73
2023/04/18 13:12:03;;;;;;;4.57;3.75;;;13.60;99.90;;;;;;5059185;28;20432;-73
2023/04/18 13:14:29;;;;;;;7.97;3.78;;;13.80;99.90;;;;;;5060942;28;20427;-72
2023/04/18 13:16:55;;;;;;;5.33;3.53;;;14.10;99.90;;;;;;5038870;28;20430;-74
2023/04/18 13:19:21;;;;;;;5.18;3.83;;;13.40;99.90;;;;;;5044939;28;20846;-74
2023/04/18 13:21:46;;;;;;;4.68;3.80;;;13.40;99.90;;;;;;5045091;28;20457;-74
2023/04/18 13:24:12;;;;;;;4.70;4.30;;;13.60;99.90;;;;;;5044288;28;20426;-74
2023/04/18 13:26:38;;;;;;;5.17;3.60;;;13.90;99.90;;;;;;5036984;28;20955;-75
2023/04/18 13:29:04;;;;;;;3.58;3.22;;;13.60;99.90;;;;;;5034953;28;20423;-76